Airfield :
LOGIN :

Register | Disclaimer

   EN    FR    IT 

 










Legend :    VFR   Marginal VFR   IFR   Intensive IFR   Very Intensive IFR
Visi :
Ceiling :
>= 8 km
>= 3000ft
5 to 8 km
1000 to 3000 ft
1500m to 5 km
500 to 1000 ft
800 to 1500m
200 to 500 ft
< 800m
< 200 ft
Symbols :   Thunderstorms  Fog  Heavy snow  Heavy precipitations  Wind > 20 kt
SIGMETs :     Misc.  Thunderstorms  Icing  Turbulence  Mountain Waves  Volcanic Ashes







- Airport Elevation : 7 ft
- IATA code : VCE


LIPZ - Marco Polo Int. Venezia

CURRENT METAR :
  • 171420Z 06018KT 9999 FEW040 06/M08 Q1019 NOSIG

EXPIRED METARs :
  • 171350Z 06016KT CAVOK 06/M07 Q1018 NOSIG
  • 171320Z 06015KT CAVOK 06/M07 Q1018 NOSIG
  • 171250Z 06016KT CAVOK 06/M08 Q1018 NOSIG
  • 171220Z 06016KT CAVOK 06/M08 Q1018 NOSIG
  • 171150Z 06016KT CAVOK 05/M08 Q1018 NOSIG

TAF TAF LIPZ
Valid from the 17 at 12:00 until the 18 at 18:00 UTC


171100Z 1712/1818 04015KT 9999 FEW060
No reported NOTAMs for that airfield.
1 SIGMET reported for the Milano FIR (LIMM) :
 
Severe icing
LIMM SIGMET 4 VALID 171120/171520 LIMM- LIMM MILANO FIR SEV ICE FCST WI N4451 E01308 - N4407 E01031 - N4342 E01102 - N4328 E01430 - N4431 E01317 - N4451 E01308 BLW FL100 STNR NC=



MET'MAP, your aeronautical weather chart ! - Copyright ORBIFLY December 2007 - Disclaimer

ORBIFLY MET'MAP TEAM :

Programming & Development : Alexandra Zaïnal
Concept & Development : Baudouin d'Aumeries
Co-Development & Prog : Marc-Olivier Méhu
Technical & hardware support : Manuel Goepfert

Contact : metmap@orbifly.com




SOURCES & CREDITS :

   NOAA